Time;durP1;ratioP1;P1;durP2;ratioP2;P2;SDS_P1;SDS_P2;PMS_P1;PMS_P2;Temp;Humidity;BMP_temperature;BMP_pressure;BME280_temperature;BME280_humidity;BME280_pressure;Samples;Min_cycle;Max_cycle;Signal;HPM_P1;HPM_P2
2021/11/04 00:02:07;;;;;;;5.33;4.83;;;10.70;99.90;;;;;;5074997;28;20228;-57
2021/11/04 00:04:33;;;;;;;5.83;4.97;;;10.80;99.90;;;;;;5074221;28;20647;-58
2021/11/04 00:07:01;;;;;;;7.43;5.03;;;10.80;99.90;;;;;;5074486;28;20212;-59
2021/11/04 00:09:29;;;;;;;4.73;4.33;;;10.90;99.90;;;;;;5074332;28;20485;-57
2021/11/04 00:11:56;;;;;;;6.27;5.10;;;10.90;99.90;;;;;;5074457;28;20637;-56
2021/11/04 00:14:23;;;;;;;4.77;4.27;;;10.90;99.90;;;;;;5074059;28;20208;-56
2021/11/04 00:16:49;;;;;;;6.97;4.37;;;10.90;99.90;;;;;;5074313;28;20623;-58
2021/11/04 00:19:16;;;;;;;4.77;4.23;;;11.00;99.90;;;;;;5074322;28;20209;-57
2021/11/04 00:21:43;;;;;;;4.80;4.30;;;11.00;99.90;;;;;;5074404;28;20240;-56
2021/11/04 00:24:10;;;;;;;5.00;4.20;;;11.00;99.90;;;;;;5074135;28;20632;-57
2021/11/04 00:26:38;;;;;;;4.87;4.37;;;11.10;99.90;;;;;;5074376;28;20209;-57
2021/11/04 00:29:05;;;;;;;4.10;3.70;;;11.00;99.90;;;;;;5073953;28;20213;-57
2021/11/04 00:31:32;;;;;;;4.77;4.27;;;11.00;99.90;;;;;;5074051;28;20259;-56
2021/11/04 00:33:58;;;;;;;6.00;4.17;;;11.00;99.90;;;;;;5073736;28;20208;-58
2021/11/04 00:36:25;;;;;;;5.00;4.50;;;11.00;99.90;;;;;;5074042;28;20220;-56
2021/11/04 00:38:52;;;;;;;5.23;3.80;;;11.10;99.90;;;;;;5073987;28;20224;-58
2021/11/04 00:41:19;;;;;;;4.40;3.83;;;11.10;99.90;;;;;;5074041;28;20201;-56
2021/11/04 00:43:47;;;;;;;4.00;3.50;;;11.10;99.90;;;;;;5074031;28;20695;-56
2021/11/04 00:46:14;;;;;;;5.90;4.30;;;11.10;99.90;;;;;;5074064;28;20209;-57
2021/11/04 00:48:41;;;;;;;3.57;3.27;;;11.10;99.90;;;;;;5073813;28;20235;-55
2021/11/04 00:51:09;;;;;;;4.33;3.93;;;11.20;99.90;;;;;;5074009;28;20225;-55
2021/11/04 00:53:36;;;;;;;4.70;4.20;;;11.10;99.90;;;;;;5073423;28;20596;-56
2021/11/04 00:56:03;;;;;;;4.27;3.80;;;11.10;99.90;;;;;;5073514;28;20212;-56
2021/11/04 00:58:30;;;;;;;5.73;3.83;;;11.10;99.90;;;;;;5073583;28;20204;-56
2021/11/04 01:00:58;;;;;;;4.63;4.20;;;11.10;99.90;;;;;;5073463;28;20201;-57
2021/11/04 01:03:26;;;;;;;5.23;4.17;;;11.10;99.90;;;;;;5072589;28;20583;-60
2021/11/04 01:05:52;;;;;;;5.43;3.93;;;11.10;99.90;;;;;;5073547;28;20748;-56
2021/11/04 01:08:19;;;;;;;4.43;4.03;;;11.10;99.90;;;;;;5073416;28;20204;-57
2021/11/04 01:10:46;;;;;;;4.20;3.63;;;11.10;99.90;;;;;;5073335;28;20229;-55
2021/11/04 01:13:13;;;;;;;3.80;3.33;;;11.00;99.90;;;;;;5073706;28;20609;-57
2021/11/04 01:15:40;;;;;;;3.60;3.30;;;11.00;99.90;;;;;;5072850;28;20681;-56
2021/11/04 01:18:08;;;;;;;4.60;3.50;;;11.00;99.90;;;;;;5073067;28;20208;-56
2021/11/04 01:20:35;;;;;;;3.87;3.20;;;11.00;99.90;;;;;;5073298;28;20476;-56
2021/11/04 01:23:02;;;;;;;4.03;3.63;;;11.10;99.90;;;;;;5072933;28;20613;-55
2021/11/04 01:25:29;;;;;;;5.53;4.60;;;11.00;99.90;;;;;;5072730;28;20606;-56
2021/11/04 01:27:55;;;;;;;4.37;3.90;;;10.90;99.90;;;;;;5072739;28;20220;-55
2021/11/04 01:30:22;;;;;;;4.90;4.40;;;10.90;99.90;;;;;;5073020;28;20225;-56
2021/11/04 01:32:49;;;;;;;6.40;4.47;;;10.90;99.90;;;;;;5096167;22;20641;-59
2021/11/04 01:35:17;;;;;;;5.73;4.50;;;10.90;99.90;;;;;;5073126;28;20237;-58
2021/11/04 01:37:43;;;;;;;7.10;5.00;;;10.80;99.90;;;;;;5073175;28;20811;-59
2021/11/04 01:40:11;;;;;;;4.80;4.30;;;10.80;99.90;;;;;;5073721;28;20208;-58
2021/11/04 01:42:38;;;;;;;8.40;4.60;;;10.90;99.90;;;;;;5072933;28;20225;-58
2021/11/04 01:45:05;;;;;;;5.33;4.73;;;10.90;99.90;;;;;;5072990;28;20205;-58
2021/11/04 01:47:32;;;;;;;5.40;4.87;;;10.90;99.90;;;;;;5073330;28;20239;-59
2021/11/04 01:49:59;;;;;;;6.63;4.97;;;10.90;99.90;;;;;;5073173;28;20228;-57
2021/11/04 01:52:27;;;;;;;7.20;5.23;;;10.90;99.90;;;;;;5073060;28;20231;-59
2021/11/04 01:54:54;;;;;;;8.13;4.70;;;10.90;99.90;;;;;;5073088;28;20209;-58
2021/11/04 01:57:20;;;;;;;5.90;5.30;;;10.90;99.90;;;;;;5072852;28;20254;-58
2021/11/04 01:59:47;;;;;;;5.67;4.30;;;10.90;99.90;;;;;;5073517;28;20254;-58
2021/11/04 02:02:17;;;;;;;4.13;3.67;;;11.00;99.90;;;;;;5072930;28;20655;-59
2021/11/04 02:04:50;;;;;;;2.97;2.67;;;10.90;99.90;;;;;;5072614;28;20220;-59
2021/11/04 02:07:25;;;;;;;3.00;2.33;;;10.90;99.90;;;;;;5072612;28;20209;-58
2021/11/04 02:10:04;;;;;;;2.00;1.80;;;10.70;99.90;;;;;;5072168;28;20641;-58
2021/11/04 02:12:37;;;;;;;2.60;2.40;;;10.70;99.90;;;;;;5072871;28;20650;-58
2021/11/04 02:15:04;;;;;;;2.33;1.73;;;10.70;99.90;;;;;;5072696;28;20220;-58
2021/11/04 02:17:33;;;;;;;1.60;1.20;;;10.60;99.90;;;;;;5072017;28;20688;-59
2021/11/04 02:20:01;;;;;;;1.20;1.10;;;10.40;99.90;;;;;;5071818;28;20201;-58
2021/11/04 02:22:37;;;;;;;1.10;1.00;;;10.10;99.90;;;;;;5071982;28;20221;-58
2021/11/04 02:25:15;;;;;;;1.17;1.00;;;9.80;99.90;;;;;;5071660;28;20200;-58
2021/11/04 02:27:45;;;;;;;1.50;1.37;;;9.70;99.90;;;;;;5071643;28;20764;-58
2021/11/04 02:30:14;;;;;;;1.67;1.30;;;9.50;99.90;;;;;;5071663;28;20754;-59
2021/11/04 02:32:41;;;;;;;1.30;1.20;;;9.40;99.90;;;;;;5071492;28;20594;-59
2021/11/04 02:35:09;;;;;;;2.83;1.60;;;9.40;99.90;;;;;;5071611;28;20209;-59
2021/11/04 02:37:37;;;;;;;3.10;1.30;;;9.30;99.90;;;;;;5071586;28;20204;-59
2021/11/04 02:40:04;;;;;;;1.67;1.40;;;9.40;99.90;;;;;;5071627;28;20201;-58
2021/11/04 02:42:32;;;;;;;2.13;1.50;;;9.40;99.90;;;;;;5071538;28;20232;-58
2021/11/04 02:44:59;;;;;;;2.03;1.50;;;9.20;99.90;;;;;;5071341;28;20208;-58
2021/11/04 02:47:26;;;;;;;4.27;1.60;;;9.20;99.90;;;;;;5071583;28;20209;-58
2021/11/04 02:49:53;;;;;;;2.20;2.00;;;9.20;99.90;;;;;;5071352;28;20255;-58
2021/11/04 02:52:20;;;;;;;1.87;1.77;;;9.30;99.90;;;;;;5071542;28;20228;-59
2021/11/04 02:54:53;;;;;;;1.60;1.50;;;9.30;99.90;;;;;;5071206;28;20205;-59
2021/11/04 02:57:20;;;;;;;4.50;1.80;;;9.30;99.90;;;;;;5071182;28;20614;-58
2021/11/04 02:59:49;;;;;;;1.90;1.70;;;9.30;99.90;;;;;;5071026;28;20208;-58
2021/11/04 03:02:16;;;;;;;2.90;1.70;;;9.30;99.90;;;;;;5071278;28;20613;-59
2021/11/04 03:04:43;;;;;;;1.93;1.83;;;9.20;99.90;;;;;;5070883;28;20701;-58
2021/11/04 03:07:10;;;;;;;2.93;1.83;;;9.20;99.90;;;;;;5071186;28;20204;-58
2021/11/04 03:09:37;;;;;;;2.83;2.00;;;9.10;99.90;;;;;;5070994;28;20208;-59
2021/11/04 03:12:04;;;;;;;7.60;5.37;;;9.10;99.90;;;;;;5071219;28;20232;-59
2021/11/04 03:14:31;;;;;;;4.37;3.63;;;9.00;99.90;;;;;;5071202;28;20586;-58
2021/11/04 03:17:03;;;;;;;1.90;1.80;;;9.00;99.90;;;;;;5071280;28;20237;-58
2021/11/04 03:19:30;;;;;;;2.10;1.90;;;8.90;99.90;;;;;;5071236;28;20204;-58
2021/11/04 03:21:58;;;;;;;2.40;1.90;;;8.90;99.90;;;;;;5071180;28;20227;-58
2021/11/04 03:24:27;;;;;;;2.40;1.80;;;8.90;99.90;;;;;;5070923;28;20237;-58
2021/11/04 03:26:58;;;;;;;2.40;2.20;;;8.80;99.90;;;;;;5070971;28;20676;-58
2021/11/04 03:29:26;;;;;;;3.13;2.03;;;8.70;99.90;;;;;;5070976;28;20346;-58
2021/11/04 03:31:56;;;;;;;2.60;2.33;;;8.70;99.90;;;;;;5070536;28;20620;-59
2021/11/04 03:34:25;;;;;;;3.80;3.13;;;8.60;99.90;;;;;;5070827;28;20205;-57
2021/11/04 03:36:53;;;;;;;2.40;2.20;;;8.70;99.90;;;;;;5070790;28;20200;-59
2021/11/04 03:39:22;;;;;;;4.37;3.47;;;8.70;99.90;;;;;;5070621;28;20725;-60
2021/11/04 03:41:51;;;;;;;5.80;4.53;;;8.70;99.90;;;;;;5070896;28;20207;-59
2021/11/04 03:44:19;;;;;;;2.57;2.37;;;8.80;99.90;;;;;;5070671;28;20205;-57
2021/11/04 03:46:47;;;;;;;6.97;4.47;;;8.80;99.90;;;;;;5070740;28;20556;-58
2021/11/04 03:49:16;;;;;;;3.23;2.83;;;8.80;99.90;;;;;;5070744;28;20296;-58
2021/11/04 03:51:46;;;;;;;4.83;3.77;;;8.90;99.90;;;;;;5070514;28;20220;-58
2021/11/04 03:54:14;;;;;;;3.53;3.10;;;9.00;99.90;;;;;;5070744;28;20680;-58
2021/11/04 03:56:41;;;;;;;11.03;9.20;;;9.00;99.90;;;;;;5070940;28;20207;-60
2021/11/04 03:59:08;;;;;;;3.93;3.00;;;9.00;99.90;;;;;;5070600;28;20209;-57
2021/11/04 04:01:36;;;;;;;8.43;6.00;;;8.90;99.90;;;;;;5070390;28;20200;-58
2021/11/04 04:04:03;;;;;;;3.10;2.70;;;9.00;99.90;;;;;;5070788;28;20652;-57
2021/11/04 04:06:30;;;;;;;3.53;3.23;;;9.00;99.90;;;;;;5070457;28;20200;-57
2021/11/04 04:08:59;;;;;;;3.83;3.47;;;9.00;99.90;;;;;;5070628;28;20205;-58
2021/11/04 04:11:27;;;;;;;4.37;3.07;;;9.00;99.90;;;;;;5070441;28;20715;-59
2021/11/04 04:13:55;;;;;;;4.03;3.13;;;9.00;99.90;;;;;;5070378;28;20221;-59
2021/11/04 04:16:22;;;;;;;3.30;3.00;;;8.90;99.90;;;;;;5070859;28;20201;-60
2021/11/04 04:18:49;;;;;;;4.07;3.40;;;8.90;99.90;;;;;;5070338;28;20259;-59
2021/11/04 04:21:16;;;;;;;4.80;4.30;;;9.00;99.90;;;;;;5070401;28;20212;-57
2021/11/04 04:23:43;;;;;;;4.50;3.90;;;9.00;99.90;;;;;;5070344;28;20282;-59
2021/11/04 04:26:11;;;;;;;3.63;3.33;;;9.00;99.90;;;;;;5070467;28;20266;-58
2021/11/04 04:28:38;;;;;;;3.30;3.00;;;9.10;99.90;;;;;;5070428;28;20266;-57
2021/11/04 04:31:05;;;;;;;3.70;3.03;;;9.10;99.90;;;;;;5070504;28;20223;-57
2021/11/04 04:33:31;;;;;;;3.30;3.00;;;9.20;99.90;;;;;;5070054;28;20282;-57
2021/11/04 04:35:58;;;;;;;3.80;2.93;;;9.10;99.90;;;;;;5070481;28;20205;-57
2021/11/04 04:38:25;;;;;;;6.33;4.80;;;9.20;99.90;;;;;;5072070;28;20205;-57
2021/11/04 04:40:52;;;;;;;4.70;3.87;;;9.10;99.90;;;;;;5074107;28;20205;-58
2021/11/04 04:43:20;;;;;;;7.10;4.87;;;9.10;99.90;;;;;;5073762;28;20235;-57
2021/11/04 04:45:46;;;;;;;3.83;3.40;;;9.10;99.90;;;;;;5073595;28;20250;-59
2021/11/04 04:48:13;;;;;;;5.50;4.17;;;9.10;99.90;;;;;;5073958;28;20216;-58
2021/11/04 04:50:41;;;;;;;5.20;3.60;;;9.10;99.90;;;;;;5073994;28;20217;-58
2021/11/04 04:53:08;;;;;;;5.20;4.10;;;9.10;99.90;;;;;;5073672;28;20736;-58
2021/11/04 04:55:36;;;;;;;8.33;4.80;;;9.10;99.90;;;;;;5073313;28;20718;-58
2021/11/04 04:58:03;;;;;;;4.77;3.90;;;9.10;99.90;;;;;;5073430;28;20286;-58
2021/11/04 05:00:31;;;;;;;6.70;5.23;;;9.10;99.90;;;;;;5073452;28;20213;-57
2021/11/04 05:02:57;;;;;;;3.80;3.47;;;9.10;99.90;;;;;;5073510;28;20225;-57
2021/11/04 05:05:24;;;;;;;3.53;3.13;;;9.10;99.90;;;;;;5073462;28;20208;-57
2021/11/04 05:07:51;;;;;;;3.03;2.33;;;9.10;99.90;;;;;;5073665;28;20212;-58
2021/11/04 05:10:18;;;;;;;4.73;2.93;;;9.00;99.90;;;;;;5073339;28;20216;-58
2021/11/04 05:12:45;;;;;;;2.77;2.50;;;9.00;99.90;;;;;;5073019;28;20229;-58
2021/11/04 05:15:12;;;;;;;3.17;2.87;;;8.90;99.90;;;;;;5072983;28;20236;-57
2021/11/04 05:17:41;;;;;;;2.87;2.63;;;8.90;99.90;;;;;;5073021;28;20672;-57
2021/11/04 05:20:09;;;;;;;4.33;3.30;;;8.90;99.90;;;;;;5073085;28;20676;-59
2021/11/04 05:22:35;;;;;;;3.97;2.90;;;9.00;99.90;;;;;;5073151;28;20252;-58
2021/11/04 05:25:02;;;;;;;3.10;2.80;;;9.00;99.90;;;;;;5073061;28;20699;-58
2021/11/04 05:27:29;;;;;;;3.10;2.80;;;9.10;99.90;;;;;;5072989;28;20353;-57
2021/11/04 05:29:56;;;;;;;4.70;3.33;;;9.10;99.90;;;;;;5073011;28;20231;-58
2021/11/04 05:32:23;;;;;;;3.33;3.03;;;9.10;99.90;;;;;;5072862;28;20233;-58
2021/11/04 05:34:52;;;;;;;3.30;2.70;;;9.10;99.90;;;;;;5072995;28;20205;-59
2021/11/04 05:37:18;;;;;;;4.23;3.33;;;9.00;99.90;;;;;;5072820;28;20262;-59
2021/11/04 05:39:45;;;;;;;3.30;3.00;;;9.10;99.90;;;;;;5072565;28;20533;-58
2021/11/04 05:42:12;;;;;;;2.50;2.30;;;9.00;99.90;;;;;;5072622;28;20232;-59
2021/11/04 05:44:38;;;;;;;2.93;2.63;;;9.00;99.90;;;;;;5072752;28;20213;-59
2021/11/04 05:47:06;;;;;;;2.40;2.20;;;8.90;99.90;;;;;;5073026;28;20216;-59
2021/11/04 05:49:33;;;;;;;3.53;2.43;;;8.90;99.90;;;;;;5072316;28;20204;-58
2021/11/04 05:52:01;;;;;;;3.33;2.97;;;8.90;99.90;;;;;;5072619;28;20730;-58
2021/11/04 05:54:28;;;;;;;2.90;2.60;;;8.90;99.90;;;;;;5072767;28;20205;-58
2021/11/04 05:56:56;;;;;;;3.27;2.50;;;8.90;99.90;;;;;;5072540;28;20261;-58
2021/11/04 05:59:22;;;;;;;3.40;2.50;;;8.90;99.90;;;;;;5072664;28;20208;-58
2021/11/04 06:01:49;;;;;;;2.67;2.47;;;8.90;99.90;;;;;;5072382;28;20258;-59
2021/11/04 06:04:16;;;;;;;3.90;2.43;;;9.00;99.90;;;;;;5072187;28;20228;-59
2021/11/04 06:06:42;;;;;;;3.77;2.20;;;9.00;99.90;;;;;;5072517;28;20205;-58
2021/11/04 06:09:11;;;;;;;2.37;2.10;;;9.10;99.90;;;;;;5072482;28;20231;-59
2021/11/04 06:11:38;;;;;;;3.63;2.37;;;9.20;99.90;;;;;;5072946;28;20233;-58
2021/11/04 06:14:06;;;;;;;2.97;2.40;;;9.20;99.90;;;;;;5072693;28;20578;-58
2021/11/04 06:16:32;;;;;;;5.07;2.63;;;9.30;99.90;;;;;;5072470;28;20227;-58
2021/11/04 06:18:59;;;;;;;2.30;2.10;;;9.30;99.90;;;;;;5072219;28;20212;-59
2021/11/04 06:21:26;;;;;;;3.33;1.80;;;9.30;99.90;;;;;;5071979;28;20204;-59
2021/11/04 06:23:53;;;;;;;3.73;2.00;;;9.40;99.90;;;;;;5071614;28;20646;-59
2021/11/04 06:26:21;;;;;;;3.57;2.20;;;9.30;99.90;;;;;;5072062;28;20618;-59
2021/11/04 06:28:47;;;;;;;4.33;1.90;;;9.40;99.90;;;;;;5071660;28;20266;-59
2021/11/04 06:31:14;;;;;;;2.30;2.10;;;9.40;99.90;;;;;;5071782;28;20217;-59
2021/11/04 06:33:41;;;;;;;2.63;2.20;;;9.40;99.90;;;;;;5071636;28;20609;-59
2021/11/04 06:36:07;;;;;;;2.57;2.20;;;9.40;99.90;;;;;;5071689;28;20213;-59
2021/11/04 06:38:34;;;;;;;3.10;1.80;;;9.50;99.90;;;;;;5071345;28;20209;-59
2021/11/04 06:41:01;;;;;;;2.80;2.10;;;9.50;99.90;;;;;;5071609;28;20303;-59
2021/11/04 06:43:30;;;;;;;2.00;1.90;;;9.50;99.90;;;;;;5071285;28;20228;-59
2021/11/04 06:45:58;;;;;;;2.30;2.03;;;9.60;99.90;;;;;;5071778;28;20625;-59
2021/11/04 06:48:27;;;;;;;3.30;2.40;;;9.60;99.90;;;;;;5071409;28;20236;-59
2021/11/04 06:50:59;;;;;;;5.20;2.00;;;9.70;99.90;;;;;;5071273;28;20204;-58
2021/11/04 06:53:28;;;;;;;1.90;1.73;;;9.70;99.90;;;;;;5071325;28;20681;-59
2021/11/04 06:55:57;;;;;;;2.80;2.00;;;9.70;99.90;;;;;;5071412;28;20231;-65
2021/11/04 06:58:30;;;;;;;2.30;2.10;;;9.70;99.90;;;;;;5071198;28;20209;-62
2021/11/04 07:00:59;;;;;;;2.50;1.80;;;9.80;99.90;;;;;;5070798;28;20391;-62
2021/11/04 07:03:28;;;;;;;2.43;1.90;;;9.80;99.90;;;;;;5071561;28;20230;-61
2021/11/04 07:05:59;;;;;;;3.50;1.90;;;9.80;99.90;;;;;;5071187;28;20209;-62
2021/11/04 07:08:27;;;;;;;3.13;2.00;;;9.90;99.90;;;;;;5071456;28;20699;-62
2021/11/04 07:10:59;;;;;;;2.67;1.87;;;9.90;99.90;;;;;;5071939;28;20231;-62
2021/11/04 07:13:27;;;;;;;4.47;3.03;;;10.00;99.90;;;;;;5072131;28;20630;-62
2021/11/04 07:15:57;;;;;;;2.90;2.10;;;10.00;99.90;;;;;;5071880;28;20211;-62
2021/11/04 07:18:24;;;;;;;2.00;1.80;;;10.10;99.90;;;;;;5071540;28;20571;-62
2021/11/04 07:20:57;;;;;;;4.40;1.93;;;10.20;99.90;;;;;;5071419;28;20209;-62
2021/11/04 07:23:39;;;;;;;2.13;1.70;;;10.10;99.90;;;;;;5071177;28;20258;-62
2021/11/04 07:26:07;;;;;;;2.60;1.97;;;10.20;99.90;;;;;;5071086;28;20653;-62
2021/11/04 07:28:38;;;;;;;2.13;1.80;;;10.20;99.90;;;;;;5070564;28;20719;-62
2021/11/04 07:31:09;;;;;;;1.93;1.50;;;10.30;99.90;;;;;;5071663;28;20304;-62
2021/11/04 07:33:36;;;;;;;1.60;1.50;;;10.30;99.90;;;;;;5109097;22;20322;-58
2021/11/04 07:36:04;;;;;;;3.67;2.60;;;10.30;99.90;;;;;;5091183;28;20225;-60
2021/11/04 07:38:35;;;;;;;1.93;1.60;;;10.40;99.90;;;;;;5090879;28;20671;-59
2021/11/04 07:41:01;;;;;;;2.90;1.27;;;10.40;99.90;;;;;;5090929;28;20201;-60
2021/11/04 07:43:30;;;;;;;2.73;2.40;;;10.30;99.90;;;;;;5090743;28;20224;-60
2021/11/04 07:45:58;;;;;;;1.63;1.20;;;10.40;99.90;;;;;;5090955;28;20253;-61
2021/11/04 07:48:27;;;;;;;2.20;1.40;;;10.40;99.90;;;;;;5090913;28;20215;-59
2021/11/04 07:50:53;;;;;;;1.40;1.20;;;10.40;99.90;;;;;;5091005;28;20210;-61
2021/11/04 07:53:20;;;;;;;1.67;1.10;;;10.50;99.90;;;;;;5090587;28;20342;-59
2021/11/04 07:55:47;;;;;;;2.07;1.30;;;10.60;99.90;;;;;;5090737;28;20207;-59
2021/11/04 07:58:14;;;;;;;2.03;1.10;;;10.60;99.90;;;;;;5090908;28;20207;-60
2021/11/04 08:00:43;;;;;;;3.73;1.10;;;10.60;99.90;;;;;;5090836;28;20204;-60
2021/11/04 08:03:10;;;;;;;1.30;1.20;;;10.60;99.90;;;;;;5090716;28;20228;-60
2021/11/04 08:05:38;;;;;;;1.10;1.00;;;10.60;99.90;;;;;;5090612;28;20204;-60
2021/11/04 08:08:05;;;;;;;2.00;1.20;;;10.60;99.90;;;;;;5090439;28;20205;-60
2021/11/04 08:10:32;;;;;;;3.47;1.23;;;10.60;99.90;;;;;;5090974;28;20608;-59
2021/11/04 08:13:03;;;;;;;3.13;1.60;;;10.60;99.90;;;;;;5093469;28;20232;-60
2021/11/04 08:15:30;;;;;;;4.33;1.60;;;10.50;99.90;;;;;;5094894;28;20353;-59
2021/11/04 08:17:57;;;;;;;4.53;1.63;;;10.50;99.90;;;;;;5094590;28;20204;-60
2021/11/04 08:20:23;;;;;;;2.00;1.43;;;10.60;99.90;;;;;;5094423;28;20668;-60
2021/11/04 08:22:51;;;;;;;1.87;1.47;;;10.60;99.90;;;;;;5094284;28;20784;-59
2021/11/04 08:25:18;;;;;;;1.93;1.67;;;10.60;99.90;;;;;;5094785;28;20281;-60
2021/11/04 08:27:45;;;;;;;2.27;1.23;;;10.60;99.90;;;;;;5094241;28;20672;-60
2021/11/04 08:30:16;;;;;;;4.40;1.70;;;10.60;99.90;;;;;;5094563;28;20208;-60
2021/11/04 08:32:43;;;;;;;1.90;1.70;;;10.50;99.90;;;;;;5094451;28;20335;-59
2021/11/04 08:35:10;;;;;;;3.23;1.60;;;10.50;99.90;;;;;;5094201;28;20567;-60
2021/11/04 08:37:37;;;;;;;1.87;1.27;;;10.50;99.90;;;;;;5094345;28;20237;-59
2021/11/04 08:40:08;;;;;;;3.83;1.40;;;10.50;99.90;;;;;;5094401;28;20291;-59
2021/11/04 08:42:35;;;;;;;5.10;2.20;;;10.50;99.90;;;;;;5094169;28;20338;-59
2021/11/04 08:45:01;;;;;;;8.90;4.60;;;10.50;99.90;;;;;;5094163;28;20204;-60
2021/11/04 08:47:28;;;;;;;2.40;1.80;;;10.50;99.90;;;;;;5093724;28;20235;-60
2021/11/04 08:49:55;;;;;;;1.67;1.27;;;10.50;99.90;;;;;;5093842;28;20284;-59
2021/11/04 08:52:22;;;;;;;6.43;1.50;;;10.40;99.90;;;;;;5093608;28;20228;-61
2021/11/04 08:54:49;;;;;;;2.70;1.40;;;10.40;99.90;;;;;;5094282;28;20231;-60
2021/11/04 08:57:18;;;;;;;2.20;1.13;;;10.50;99.90;;;;;;5093853;28;20566;-60
2021/11/04 08:59:45;;;;;;;4.97;1.40;;;10.60;99.90;;;;;;5093724;28;20698;-60
2021/11/04 09:02:12;;;;;;;1.60;1.20;;;10.60;99.90;;;;;;5093733;28;20221;-60
2021/11/04 09:04:42;;;;;;;3.07;1.37;;;10.60;99.90;;;;;;5093637;28;20215;-60
2021/11/04 09:07:09;;;;;;;2.70;1.60;;;10.60;99.90;;;;;;5093523;28;20200;-60
2021/11/04 09:09:36;;;;;;;2.10;1.33;;;10.60;99.90;;;;;;5093453;28;20698;-59
2021/11/04 09:12:03;;;;;;;2.83;1.43;;;10.60;99.90;;;;;;5093504;28;20231;-60
2021/11/04 09:14:31;;;;;;;4.43;1.63;;;10.60;99.90;;;;;;5092997;28;20204;-60
2021/11/04 09:16:58;;;;;;;2.57;1.70;;;10.50;99.90;;;;;;5093138;28;20210;-60
2021/11/04 09:19:25;;;;;;;3.63;2.10;;;10.50;99.90;;;;;;5093342;28;20683;-60
2021/11/04 09:21:57;;;;;;;3.07;2.00;;;10.50;99.90;;;;;;5093195;28;20204;-61
2021/11/04 09:24:23;;;;;;;2.20;1.50;;;10.40;99.90;;;;;;5092348;28;20211;-58
2021/11/04 09:26:50;;;;;;;1.40;1.30;;;10.50;99.90;;;;;;5092948;28;20204;-60
2021/11/04 09:29:17;;;;;;;7.80;1.80;;;10.50;99.90;;;;;;5092656;28;20694;-59
2021/11/04 09:31:45;;;;;;;4.33;2.93;;;10.40;99.90;;;;;;5093120;28;20212;-60
2021/11/04 09:34:12;;;;;;;2.93;1.70;;;10.40;99.90;;;;;;5092286;28;20228;-60
2021/11/04 09:36:39;;;;;;;2.00;1.80;;;10.40;99.90;;;;;;5092920;28;20204;-60
2021/11/04 09:39:06;;;;;;;2.87;1.57;;;10.50;99.90;;;;;;5092880;28;20608;-59
2021/11/04 09:41:33;;;;;;;2.85;1.85;;;10.60;99.90;;;;;;5092304;28;20785;-60
2021/11/04 09:44:02;;;;;;;2.10;1.90;;;10.60;99.90;;;;;;5092675;28;20651;-58
2021/11/04 09:46:29;;;;;;;2.10;1.87;;;10.60;99.90;;;;;;5093022;28;20299;-61
2021/11/04 09:48:57;;;;;;;2.40;1.70;;;10.70;99.90;;;;;;5093045;28;20259;-59
2021/11/04 09:51:24;;;;;;;2.10;1.80;;;10.70;99.90;;;;;;5093098;28;20675;-57
2021/11/04 09:53:51;;;;;;;5.30;1.80;;;10.60;99.90;;;;;;5092382;28;20699;-63
2021/11/04 09:56:19;;;;;;;3.57;1.87;;;10.60;99.90;;;;;;5092966;28;20208;-63
2021/11/04 09:58:46;;;;;;;3.90;1.93;;;10.60;99.90;;;;;;5092583;28;20207;-59
2021/11/04 10:01:18;;;;;;;2.10;1.70;;;10.70;99.90;;;;;;5092561;28;20694;-57
2021/11/04 10:03:45;;;;;;;2.10;1.87;;;10.70;99.90;;;;;;5092692;28;20666;-58
2021/11/04 10:06:22;;;;;;;3.10;1.57;;;10.60;99.90;;;;;;5092595;28;20691;-58
2021/11/04 10:08:51;;;;;;;4.53;2.20;;;10.60;99.90;;;;;;5092278;28;20204;-58
2021/11/04 10:11:19;;;;;;;3.60;1.83;;;10.70;99.90;;;;;;5092443;28;20215;-56
2021/11/04 10:13:48;;;;;;;3.10;1.50;;;10.70;99.90;;;;;;5092166;28;20598;-55
2021/11/04 10:16:17;;;;;;;1.70;1.50;;;10.60;99.90;;;;;;5092127;28;20225;-58
2021/11/04 10:18:45;;;;;;;1.43;1.20;;;10.60;99.90;;;;;;5092109;28;20211;-58
2021/11/04 10:21:12;;;;;;;1.20;1.10;;;10.70;99.90;;;;;;5092373;28;20207;-58
2021/11/04 10:23:42;;;;;;;2.20;1.60;;;10.70;99.90;;;;;;5092179;28;20711;-55
2021/11/04 10:26:11;;;;;;;2.93;1.13;;;10.80;99.90;;;;;;5092545;28;20211;-57
2021/11/04 10:28:41;;;;;;;2.83;1.40;;;10.70;99.90;;;;;;5091976;28;20586;-58
2021/11/04 10:31:10;;;;;;;5.30;2.73;;;10.50;99.90;;;;;;5092181;28;20204;-59
2021/11/04 10:33:38;;;;;;;2.73;1.17;;;10.60;99.90;;;;;;5091656;28;20699;-57
2021/11/04 10:36:09;;;;;;;3.07;1.70;;;10.50;99.90;;;;;;5090712;28;20294;-57
2021/11/04 10:38:40;;;;;;;1.67;1.40;;;10.60;99.90;;;;;;5091740;28;20676;-56
2021/11/04 10:41:08;;;;;;;1.80;1.60;;;10.50;99.90;;;;;;5092069;28;20211;-57
2021/11/04 10:43:35;;;;;;;1.93;1.33;;;10.50;99.90;;;;;;5091457;28;20589;-57
2021/11/04 10:46:08;;;;;;;1.37;1.27;;;10.50;99.90;;;;;;5091699;28;20238;-57
2021/11/04 10:48:36;;;;;;;2.50;1.30;;;10.40;99.90;;;;;;5091618;28;20212;-56
2021/11/04 10:51:03;;;;;;;2.33;1.60;;;10.40;99.90;;;;;;5091848;28;20470;-56
2021/11/04 10:53:30;;;;;;;3.50;2.23;;;10.40;99.90;;;;;;5091370;28;20236;-57
2021/11/04 10:56:15;;;;;;;4.07;2.57;;;10.40;99.90;;;;;;5091723;28;20204;-58
2021/11/04 10:58:42;;;;;;;5.20;2.37;;;10.30;99.90;;;;;;5091102;28;20219;-57
2021/11/04 11:01:25;;;;;;;2.67;2.00;;;10.30;99.90;;;;;;5091480;28;20846;-57
2021/11/04 11:03:54;;;;;;;3.33;2.37;;;10.30;99.90;;;;;;5091250;28;20276;-56
2021/11/04 11:06:21;;;;;;;3.77;2.40;;;10.20;99.90;;;;;;5091647;28;20231;-55
2021/11/04 11:08:48;;;;;;;4.37;3.20;;;10.20;99.90;;;;;;5091317;28;20295;-56
2021/11/04 11:11:18;;;;;;;3.00;2.70;;;10.10;99.90;;;;;;5091623;28;20204;-56
2021/11/04 11:13:46;;;;;;;3.90;2.83;;;10.00;99.90;;;;;;5091599;28;20236;-56
2021/11/04 11:16:15;;;;;;;5.80;3.90;;;10.00;99.90;;;;;;5091889;28;20208;-56
2021/11/04 11:18:41;;;;;;;7.30;4.67;;;10.00;99.90;;;;;;5091832;28;20213;-58
2021/11/04 11:21:09;;;;;;;9.63;5.27;;;10.00;99.90;;;;;;5091942;28;20220;-56
2021/11/04 11:23:37;;;;;;;5.83;4.17;;;10.00;99.90;;;;;;5091136;28;20216;-59
2021/11/04 11:26:10;;;;;;;4.90;3.93;;;10.00;99.90;;;;;;5091292;28;20583;-58
2021/11/04 11:28:39;;;;;;;6.23;4.50;;;9.90;99.90;;;;;;5091169;28;20208;-58
2021/11/04 11:31:17;;;;;;;5.50;4.53;;;9.90;99.90;;;;;;5091341;28;20208;-58
2021/11/04 11:33:45;;;;;;;6.30;5.17;;;9.80;99.90;;;;;;5090681;28;20228;-58
2021/11/04 11:36:14;;;;;;;9.60;5.53;;;9.80;99.90;;;;;;5091310;28;20204;-56
2021/11/04 11:39:08;;;;;;;6.27;5.13;;;9.90;99.90;;;;;;5090690;28;20204;-57
2021/11/04 11:41:50;;;;;;;7.07;5.40;;;10.00;99.90;;;;;;5090772;28;20725;-57
2021/11/04 11:44:37;;;;;;;8.73;5.90;;;10.00;99.90;;;;;;5090318;28;20241;-56
2021/11/04 11:47:05;;;;;;;7.10;5.47;;;10.00;99.90;;;;;;5092157;28;20204;-56
2021/11/04 11:49:34;;;;;;;7.10;5.07;;;10.00;99.90;;;;;;5094965;28;20204;-57
2021/11/04 11:52:01;;;;;;;5.63;4.70;;;10.00;99.90;;;;;;5094951;28;20200;-57
2021/11/04 11:54:59;;;;;;;6.70;5.27;;;10.00;99.90;;;;;;5094708;28;20270;-57
2021/11/04 11:57:25;;;;;;;7.03;5.53;;;10.00;99.90;;;;;;5094287;28;20267;-57
2021/11/04 11:59:55;;;;;;;6.77;5.20;;;10.00;99.90;;;;;;5094689;28;20683;-58
2021/11/04 12:02:38;;;;;;;7.37;5.63;;;10.10;99.90;;;;;;5094649;28;20641;-58
2021/11/04 12:05:36;;;;;;;8.03;6.30;;;10.10;99.90;;;;;;5094741;28;20202;-62
2021/11/04 12:08:33;;;;;;;6.90;6.20;;;10.10;99.90;;;;;;5094802;28;20286;-58
2021/11/04 12:11:01;;;;;;;7.67;6.13;;;10.00;99.90;;;;;;5094699;28;20291;-57
2021/11/04 12:13:33;;;;;;;7.80;5.83;;;10.00;99.90;;;;;;5094135;28;20228;-57
2021/11/04 12:16:09;;;;;;;7.23;6.47;;;10.00;99.90;;;;;;5094223;28;20255;-58
2021/11/04 12:18:36;;;;;;;6.73;6.03;;;10.10;99.90;;;;;;5094406;28;20250;-57
2021/11/04 12:21:04;;;;;;;7.03;5.83;;;10.20;99.90;;;;;;5094545;28;20743;-57
2021/11/04 12:23:32;;;;;;;7.07;6.10;;;10.10;99.90;;;;;;5094185;28;20596;-57
2021/11/04 12:25:59;;;;;;;8.27;6.67;;;10.10;99.90;;;;;;5094196;28;20203;-59
2021/11/04 12:28:26;;;;;;;7.57;6.87;;;10.10;99.90;;;;;;5093856;28;20215;-62
2021/11/04 12:30:53;;;;;;;8.43;6.73;;;10.20;99.90;;;;;;5094285;28;20219;-59
2021/11/04 12:33:21;;;;;;;8.47;7.47;;;10.10;99.90;;;;;;5093798;28;20228;-57
2021/11/04 12:35:51;;;;;;;13.10;8.00;;;10.10;99.90;;;;;;5094099;28;20204;-57
2021/11/04 12:38:19;;;;;;;9.63;7.80;;;10.10;99.90;;;;;;5093987;28;20265;-57
2021/11/04 12:40:47;;;;;;;10.37;8.80;;;10.10;99.90;;;;;;5094159;28;20204;-57
2021/11/04 12:43:14;;;;;;;10.77;7.70;;;10.00;99.90;;;;;;5094073;28;20235;-57
2021/11/04 12:45:45;;;;;;;9.80;8.40;;;10.10;99.90;;;;;;5094037;28;20584;-58
2021/11/04 12:48:13;;;;;;;9.03;8.07;;;10.20;99.90;;;;;;5093713;28;20204;-57
2021/11/04 12:50:42;;;;;;;8.63;7.37;;;10.30;99.90;;;;;;5093653;28;20745;-59
2021/11/04 12:53:10;;;;;;;8.10;7.20;;;10.20;99.90;;;;;;5093471;28;20224;-58
2021/11/04 12:55:37;;;;;;;9.33;6.93;;;10.20;99.90;;;;;;5093426;28;20205;-57
2021/11/04 12:58:05;;;;;;;8.77;7.30;;;10.10;99.90;;;;;;5092714;28;20291;-57